sensor_id;sensor_type;location;lat;lon;timestamp;P1;durP1;ratioP1;P2;durP2;ratioP2
71204;SDS011;58935;54.498;18.544;2024-03-17T00:01:36;17.50;;;5.50;;
71204;SDS011;58935;54.498;18.544;2024-03-17T00:04:01;13.90;;;3.70;;
71204;SDS011;58935;54.498;18.544;2024-03-17T00:06:28;18.50;;;3.70;;
71204;SDS011;58935;54.498;18.544;2024-03-17T00:08:53;25.90;;;7.30;;
71204;SDS011;58935;54.498;18.544;2024-03-17T00:11:20;22.20;;;4.60;;
71204;SDS011;58935;54.498;18.544;2024-03-17T00:13:46;20.00;;;3.90;;
71204;SDS011;58935;54.498;18.544;2024-03-17T00:16:13;19.90;;;3.40;;
71204;SDS011;58935;54.498;18.544;2024-03-17T00:18:39;22.90;;;4.70;;
71204;SDS011;58935;54.498;18.544;2024-03-17T00:21:06;17.90;;;4.30;;
71204;SDS011;58935;54.498;18.544;2024-03-17T00:23:31;21.50;;;4.20;;
71204;SDS011;58935;54.498;18.544;2024-03-17T00:25:56;22.20;;;4.00;;
71204;SDS011;58935;54.498;18.544;2024-03-17T00:28:22;20.80;;;3.40;;
71204;SDS011;58935;54.498;18.544;2024-03-17T00:30:48;26.70;;;4.30;;
71204;SDS011;58935;54.498;18.544;2024-03-17T00:33:13;18.60;;;3.80;;
71204;SDS011;58935;54.498;18.544;2024-03-17T00:35:39;23.40;;;4.30;;
71204;SDS011;58935;54.498;18.544;2024-03-17T00:38:05;17.20;;;3.70;;
71204;SDS011;58935;54.498;18.544;2024-03-17T00:40:38;33.10;;;8.70;;
71204;SDS011;58935;54.498;18.544;2024-03-17T00:43:09;30.60;;;4.70;;
71204;SDS011;58935;54.498;18.544;2024-03-17T00:45:36;20.60;;;5.40;;
71204;SDS011;58935;54.498;18.544;2024-03-17T00:48:02;18.50;;;4.30;;
71204;SDS011;58935;54.498;18.544;2024-03-17T00:50:28;14.30;;;3.30;;
71204;SDS011;58935;54.498;18.544;2024-03-17T00:52:53;22.80;;;4.60;;
71204;SDS011;58935;54.498;18.544;2024-03-17T00:55:19;14.50;;;4.70;;
71204;SDS011;58935;54.498;18.544;2024-03-17T00:57:44;13.70;;;4.70;;
71204;SDS011;58935;54.498;18.544;2024-03-17T01:00:10;15.80;;;3.80;;
71204;SDS011;58935;54.498;18.544;2024-03-17T01:02:37;11.50;;;4.00;;
71204;SDS011;58935;54.498;18.544;2024-03-17T01:05:03;18.80;;;2.80;;
71204;SDS011;58935;54.498;18.544;2024-03-17T01:07:31;15.50;;;3.00;;
71204;SDS011;58935;54.498;18.544;2024-03-17T01:09:57;16.40;;;3.10;;
71204;SDS011;58935;54.498;18.544;2024-03-17T01:12:22;10.40;;;2.60;;
71204;SDS011;58935;54.498;18.544;2024-03-17T01:14:48;15.80;;;2.70;;
71204;SDS011;58935;54.498;18.544;2024-03-17T01:17:13;19.40;;;3.20;;
71204;SDS011;58935;54.498;18.544;2024-03-17T01:19:39;10.40;;;2.60;;
71204;SDS011;58935;54.498;18.544;2024-03-17T01:22:04;19.30;;;2.80;;
71204;SDS011;58935;54.498;18.544;2024-03-17T01:24:29;14.20;;;3.60;;
71204;SDS011;58935;54.498;18.544;2024-03-17T01:26:58;8.70;;;2.60;;
71204;SDS011;58935;54.498;18.544;2024-03-17T01:29:24;12.60;;;2.80;;
71204;SDS011;58935;54.498;18.544;2024-03-17T01:31:50;13.20;;;2.90;;
71204;SDS011;58935;54.498;18.544;2024-03-17T01:34:18;13.00;;;2.50;;
71204;SDS011;58935;54.498;18.544;2024-03-17T01:36:44;8.50;;;2.70;;
71204;SDS011;58935;54.498;18.544;2024-03-17T01:39:10;5.70;;;2.30;;
71204;SDS011;58935;54.498;18.544;2024-03-17T01:41:39;8.00;;;2.50;;
71204;SDS011;58935;54.498;18.544;2024-03-17T01:44:07;12.20;;;2.40;;
71204;SDS011;58935;54.498;18.544;2024-03-17T01:46:32;8.90;;;2.10;;
71204;SDS011;58935;54.498;18.544;2024-03-17T01:48:58;6.10;;;1.70;;
71204;SDS011;58935;54.498;18.544;2024-03-17T01:51:28;3.70;;;1.70;;
71204;SDS011;58935;54.498;18.544;2024-03-17T01:53:55;4.50;;;1.30;;
71204;SDS011;58935;54.498;18.544;2024-03-17T01:56:21;1.70;;;1.00;;
71204;SDS011;58935;54.498;18.544;2024-03-17T01:58:47;3.20;;;1.40;;
71204;SDS011;58935;54.498;18.544;2024-03-17T02:01:13;3.60;;;1.30;;
71204;SDS011;58935;54.498;18.544;2024-03-17T02:03:40;4.20;;;1.40;;
71204;SDS011;58935;54.498;18.544;2024-03-17T02:06:07;5.60;;;1.50;;
71204;SDS011;58935;54.498;18.544;2024-03-17T02:11:25;7.10;;;1.70;;
71204;SDS011;58935;54.498;18.544;2024-03-17T02:13:54;10.10;;;1.80;;
71204;SDS011;58935;54.498;18.544;2024-03-17T02:16:21;4.90;;;2.10;;
71204;SDS011;58935;54.498;18.544;2024-03-17T02:18:47;4.70;;;1.70;;
71204;SDS011;58935;54.498;18.544;2024-03-17T02:21:18;4.40;;;1.40;;
71204;SDS011;58935;54.498;18.544;2024-03-17T02:23:48;5.50;;;1.60;;
71204;SDS011;58935;54.498;18.544;2024-03-17T02:26:13;7.60;;;2.10;;
71204;SDS011;58935;54.498;18.544;2024-03-17T02:28:39;10.70;;;3.40;;
71204;SDS011;58935;54.498;18.544;2024-03-17T02:31:07;5.00;;;1.90;;
71204;SDS011;58935;54.498;18.544;2024-03-17T02:33:35;8.00;;;1.60;;
71204;SDS011;58935;54.498;18.544;2024-03-17T02:36:04;6.00;;;1.50;;
71204;SDS011;58935;54.498;18.544;2024-03-17T02:38:33;7.50;;;1.90;;
71204;SDS011;58935;54.498;18.544;2024-03-17T02:41:02;6.10;;;1.70;;
71204;SDS011;58935;54.498;18.544;2024-03-17T02:43:29;4.70;;;2.10;;
71204;SDS011;58935;54.498;18.544;2024-03-17T02:45:54;5.50;;;1.80;;
71204;SDS011;58935;54.498;18.544;2024-03-17T02:48:19;5.70;;;1.30;;
71204;SDS011;58935;54.498;18.544;2024-03-17T02:50:47;3.70;;;1.40;;
71204;SDS011;58935;54.498;18.544;2024-03-17T02:53:15;3.00;;;1.40;;
71204;SDS011;58935;54.498;18.544;2024-03-17T02:55:40;4.30;;;1.40;;
71204;SDS011;58935;54.498;18.544;2024-03-17T02:58:05;7.90;;;1.40;;
71204;SDS011;58935;54.498;18.544;2024-03-17T03:00:33;3.20;;;1.50;;
71204;SDS011;58935;54.498;18.544;2024-03-17T03:02:58;7.30;;;1.60;;
71204;SDS011;58935;54.498;18.544;2024-03-17T03:05:24;8.40;;;1.70;;
71204;SDS011;58935;54.498;18.544;2024-03-17T03:07:50;4.10;;;1.50;;
71204;SDS011;58935;54.498;18.544;2024-03-17T03:10:18;10.40;;;1.70;;
71204;SDS011;58935;54.498;18.544;2024-03-17T03:12:43;6.40;;;2.10;;
71204;SDS011;58935;54.498;18.544;2024-03-17T03:15:09;6.80;;;2.00;;
71204;SDS011;58935;54.498;18.544;2024-03-17T03:17:37;5.30;;;1.70;;
71204;SDS011;58935;54.498;18.544;2024-03-17T03:20:03;5.10;;;1.70;;
71204;SDS011;58935;54.498;18.544;2024-03-17T03:22:28;6.90;;;1.80;;
71204;SDS011;58935;54.498;18.544;2024-03-17T03:24:54;2.40;;;1.50;;
71204;SDS011;58935;54.498;18.544;2024-03-17T03:27:19;8.10;;;1.30;;
71204;SDS011;58935;54.498;18.544;2024-03-17T03:29:44;5.10;;;1.20;;
71204;SDS011;58935;54.498;18.544;2024-03-17T03:32:12;5.10;;;1.60;;
71204;SDS011;58935;54.498;18.544;2024-03-17T03:34:38;2.20;;;1.40;;
71204;SDS011;58935;54.498;18.544;2024-03-17T03:37:04;7.70;;;1.70;;
71204;SDS011;58935;54.498;18.544;2024-03-17T03:39:32;10.50;;;2.10;;
71204;SDS011;58935;54.498;18.544;2024-03-17T03:41:57;4.50;;;2.50;;
71204;SDS011;58935;54.498;18.544;2024-03-17T03:44:23;5.30;;;2.00;;
71204;SDS011;58935;54.498;18.544;2024-03-17T03:46:48;5.20;;;2.70;;
71204;SDS011;58935;54.498;18.544;2024-03-17T03:49:14;7.30;;;2.40;;
71204;SDS011;58935;54.498;18.544;2024-03-17T03:51:41;2.30;;;1.90;;
71204;SDS011;58935;54.498;18.544;2024-03-17T03:54:07;10.80;;;4.00;;
71204;SDS011;58935;54.498;18.544;2024-03-17T03:56:32;9.50;;;2.10;;
71204;SDS011;58935;54.498;18.544;2024-03-17T03:58:58;7.40;;;2.70;;
71204;SDS011;58935;54.498;18.544;2024-03-17T04:01:26;6.50;;;2.80;;
71204;SDS011;58935;54.498;18.544;2024-03-17T04:03:52;6.30;;;2.60;;
71204;SDS011;58935;54.498;18.544;2024-03-17T04:06:17;5.50;;;2.60;;
71204;SDS011;58935;54.498;18.544;2024-03-17T04:08:43;2.00;;;1.70;;
71204;SDS011;58935;54.498;18.544;2024-03-17T04:11:09;3.10;;;1.70;;
71204;SDS011;58935;54.498;18.544;2024-03-17T04:13:35;4.90;;;2.30;;
71204;SDS011;58935;54.498;18.544;2024-03-17T04:16:04;5.90;;;2.00;;
71204;SDS011;58935;54.498;18.544;2024-03-17T04:18:31;4.10;;;1.90;;
71204;SDS011;58935;54.498;18.544;2024-03-17T04:21:01;4.80;;;2.40;;
71204;SDS011;58935;54.498;18.544;2024-03-17T04:23:30;2.90;;;2.00;;
71204;SDS011;58935;54.498;18.544;2024-03-17T04:25:58;4.80;;;1.80;;
71204;SDS011;58935;54.498;18.544;2024-03-17T04:28:24;3.40;;;2.30;;
71204;SDS011;58935;54.498;18.544;2024-03-17T04:30:49;2.50;;;1.50;;
71204;SDS011;58935;54.498;18.544;2024-03-17T04:33:15;2.90;;;1.40;;
71204;SDS011;58935;54.498;18.544;2024-03-17T04:35:42;2.80;;;1.60;;
71204;SDS011;58935;54.498;18.544;2024-03-17T04:38:08;1.60;;;1.50;;
71204;SDS011;58935;54.498;18.544;2024-03-17T04:43:06;1.80;;;1.20;;
71204;SDS011;58935;54.498;18.544;2024-03-17T04:45:32;5.10;;;1.30;;
71204;SDS011;58935;54.498;18.544;2024-03-17T04:47:57;1.80;;;1.50;;
71204;SDS011;58935;54.498;18.544;2024-03-17T04:50:23;2.00;;;1.60;;
71204;SDS011;58935;54.498;18.544;2024-03-17T04:52:48;2.40;;;1.80;;
71204;SDS011;58935;54.498;18.544;2024-03-17T04:55:14;3.30;;;1.60;;
71204;SDS011;58935;54.498;18.544;2024-03-17T04:57:42;3.70;;;1.50;;
71204;SDS011;58935;54.498;18.544;2024-03-17T05:00:09;1.50;;;1.40;;
71204;SDS011;58935;54.498;18.544;2024-03-17T05:02:39;3.10;;;1.40;;
71204;SDS011;58935;54.498;18.544;2024-03-17T05:05:05;3.70;;;1.30;;
71204;SDS011;58935;54.498;18.544;2024-03-17T05:07:35;3.00;;;1.40;;
71204;SDS011;58935;54.498;18.544;2024-03-17T05:10:03;2.30;;;1.30;;
71204;SDS011;58935;54.498;18.544;2024-03-17T05:12:32;2.00;;;1.80;;
71204;SDS011;58935;54.498;18.544;2024-03-17T05:14:57;2.50;;;1.40;;
71204;SDS011;58935;54.498;18.544;2024-03-17T05:17:22;3.00;;;1.70;;
71204;SDS011;58935;54.498;18.544;2024-03-17T05:19:48;1.90;;;1.40;;
71204;SDS011;58935;54.498;18.544;2024-03-17T05:22:13;1.70;;;1.40;;
71204;SDS011;58935;54.498;18.544;2024-03-17T05:24:39;2.90;;;1.30;;
71204;SDS011;58935;54.498;18.544;2024-03-17T05:27:04;3.00;;;1.20;;
71204;SDS011;58935;54.498;18.544;2024-03-17T05:29:30;1.10;;;1.00;;
71204;SDS011;58935;54.498;18.544;2024-03-17T05:31:56;1.70;;;1.20;;
71204;SDS011;58935;54.498;18.544;2024-03-17T05:34:21;1.90;;;1.30;;
71204;SDS011;58935;54.498;18.544;2024-03-17T05:36:50;1.50;;;1.20;;
71204;SDS011;58935;54.498;18.544;2024-03-17T05:39:18;1.40;;;1.10;;
71204;SDS011;58935;54.498;18.544;2024-03-17T05:41:45;1.00;;;0.90;;
71204;SDS011;58935;54.498;18.544;2024-03-17T05:44:14;1.90;;;1.10;;
71204;SDS011;58935;54.498;18.544;2024-03-17T05:46:40;4.30;;;1.40;;
71204;SDS011;58935;54.498;18.544;2024-03-17T05:49:07;0.90;;;0.90;;
71204;SDS011;58935;54.498;18.544;2024-03-17T05:51:32;0.70;;;0.70;;
71204;SDS011;58935;54.498;18.544;2024-03-17T05:53:58;0.80;;;0.80;;
71204;SDS011;58935;54.498;18.544;2024-03-17T05:56:23;1.00;;;1.00;;
71204;SDS011;58935;54.498;18.544;2024-03-17T05:58:49;0.80;;;0.80;;
71204;SDS011;58935;54.498;18.544;2024-03-17T06:01:15;1.40;;;1.10;;
71204;SDS011;58935;54.498;18.544;2024-03-17T06:03:40;0.90;;;0.90;;
71204;SDS011;58935;54.498;18.544;2024-03-17T06:06:07;4.30;;;1.50;;
71204;SDS011;58935;54.498;18.544;2024-03-17T06:08:39;2.30;;;1.40;;
71204;SDS011;58935;54.498;18.544;2024-03-17T06:11:05;2.60;;;1.60;;
71204;SDS011;58935;54.498;18.544;2024-03-17T06:13:32;6.90;;;1.90;;
71204;SDS011;58935;54.498;18.544;2024-03-17T06:15:57;13.60;;;2.90;;
71204;SDS011;58935;54.498;18.544;2024-03-17T06:18:26;5.20;;;1.70;;
71204;SDS011;58935;54.498;18.544;2024-03-17T06:20:52;4.90;;;1.60;;
71204;SDS011;58935;54.498;18.544;2024-03-17T06:23:20;4.10;;;1.50;;
71204;SDS011;58935;54.498;18.544;2024-03-17T06:25:48;6.20;;;1.70;;
71204;SDS011;58935;54.498;18.544;2024-03-17T06:28:16;2.70;;;1.40;;
71204;SDS011;58935;54.498;18.544;2024-03-17T06:30:44;2.60;;;1.50;;
71204;SDS011;58935;54.498;18.544;2024-03-17T06:33:13;4.80;;;2.00;;
71204;SDS011;58935;54.498;18.544;2024-03-17T06:35:41;4.90;;;1.70;;
71204;SDS011;58935;54.498;18.544;2024-03-17T06:38:07;4.70;;;1.60;;
71204;SDS011;58935;54.498;18.544;2024-03-17T06:40:36;3.70;;;1.80;;
71204;SDS011;58935;54.498;18.544;2024-03-17T06:43:02;1.90;;;1.50;;
71204;SDS011;58935;54.498;18.544;2024-03-17T06:45:27;2.90;;;1.50;;
71204;SDS011;58935;54.498;18.544;2024-03-17T06:47:52;1.10;;;1.10;;
71204;SDS011;58935;54.498;18.544;2024-03-17T06:50:18;2.40;;;1.60;;
71204;SDS011;58935;54.498;18.544;2024-03-17T06:52:43;3.20;;;1.30;;
71204;SDS011;58935;54.498;18.544;2024-03-17T06:55:09;1.70;;;1.30;;
71204;SDS011;58935;54.498;18.544;2024-03-17T06:57:34;2.90;;;1.70;;
71204;SDS011;58935;54.498;18.544;2024-03-17T07:00:02;3.60;;;1.70;;
71204;SDS011;58935;54.498;18.544;2024-03-17T07:02:31;5.50;;;2.40;;
71204;SDS011;58935;54.498;18.544;2024-03-17T07:04:58;3.30;;;1.90;;
71204;SDS011;58935;54.498;18.544;2024-03-17T07:07:27;3.00;;;1.90;;
71204;SDS011;58935;54.498;18.544;2024-03-17T07:09:53;2.70;;;1.50;;
71204;SDS011;58935;54.498;18.544;2024-03-17T07:12:18;1.80;;;1.40;;
71204;SDS011;58935;54.498;18.544;2024-03-17T07:14:45;1.40;;;1.30;;
71204;SDS011;58935;54.498;18.544;2024-03-17T07:17:10;1.30;;;1.20;;
71204;SDS011;58935;54.498;18.544;2024-03-17T07:19:35;1.80;;;1.10;;
71204;SDS011;58935;54.498;18.544;2024-03-17T07:22:01;3.50;;;1.70;;
71204;SDS011;58935;54.498;18.544;2024-03-17T07:24:29;1.40;;;1.10;;
71204;SDS011;58935;54.498;18.544;2024-03-17T07:26:55;3.00;;;1.50;;
71204;SDS011;58935;54.498;18.544;2024-03-17T07:29:21;1.60;;;1.30;;
71204;SDS011;58935;54.498;18.544;2024-03-17T07:31:46;1.70;;;1.60;;
71204;SDS011;58935;54.498;18.544;2024-03-17T07:34:12;1.40;;;1.30;;
71204;SDS011;58935;54.498;18.544;2024-03-17T07:36:37;2.30;;;1.40;;
71204;SDS011;58935;54.498;18.544;2024-03-17T07:39:04;2.70;;;1.60;;
71204;SDS011;58935;54.498;18.544;2024-03-17T07:41:32;2.20;;;1.80;;
71204;SDS011;58935;54.498;18.544;2024-03-17T07:43:58;1.80;;;1.50;;
71204;SDS011;58935;54.498;18.544;2024-03-17T07:46:23;2.10;;;1.50;;
71204;SDS011;58935;54.498;18.544;2024-03-17T07:48:48;1.70;;;1.20;;
71204;SDS011;58935;54.498;18.544;2024-03-17T07:51:15;2.10;;;1.50;;
71204;SDS011;58935;54.498;18.544;2024-03-17T07:53:43;2.50;;;1.20;;
71204;SDS011;58935;54.498;18.544;2024-03-17T07:56:11;2.60;;;1.00;;
71204;SDS011;58935;54.498;18.544;2024-03-17T07:58:39;2.20;;;1.80;;
71204;SDS011;58935;54.498;18.544;2024-03-17T08:01:07;2.20;;;1.80;;
71204;SDS011;58935;54.498;18.544;2024-03-17T08:03:36;3.90;;;3.60;;
71204;SDS011;58935;54.498;18.544;2024-03-17T08:06:04;4.40;;;1.70;;
71204;SDS011;58935;54.498;18.544;2024-03-17T08:08:31;1.30;;;1.20;;
71204;SDS011;58935;54.498;18.544;2024-03-17T08:10:57;3.40;;;1.60;;
71204;SDS011;58935;54.498;18.544;2024-03-17T08:13:24;4.70;;;1.50;;
71204;SDS011;58935;54.498;18.544;2024-03-17T08:15:55;3.00;;;1.30;;
71204;SDS011;58935;54.498;18.544;2024-03-17T08:18:22;1.50;;;1.40;;
71204;SDS011;58935;54.498;18.544;2024-03-17T08:20:47;4.50;;;1.90;;
71204;SDS011;58935;54.498;18.544;2024-03-17T08:23:13;3.00;;;2.00;;
71204;SDS011;58935;54.498;18.544;2024-03-17T08:25:39;3.60;;;2.10;;
71204;SDS011;58935;54.498;18.544;2024-03-17T08:28:07;5.50;;;2.10;;
71204;SDS011;58935;54.498;18.544;2024-03-17T08:30:33;3.00;;;1.60;;
71204;SDS011;58935;54.498;18.544;2024-03-17T08:32:59;1.70;;;1.60;;
71204;SDS011;58935;54.498;18.544;2024-03-17T08:35:25;2.40;;;1.70;;
71204;SDS011;58935;54.498;18.544;2024-03-17T08:37:51;2.90;;;1.80;;
71204;SDS011;58935;54.498;18.544;2024-03-17T08:40:19;2.00;;;1.60;;
71204;SDS011;58935;54.498;18.544;2024-03-17T08:42:45;1.60;;;1.40;;
71204;SDS011;58935;54.498;18.544;2024-03-17T08:45:11;1.70;;;1.60;;
71204;SDS011;58935;54.498;18.544;2024-03-17T08:47:38;2.20;;;1.40;;
71204;SDS011;58935;54.498;18.544;2024-03-17T08:50:04;4.70;;;1.80;;
71204;SDS011;58935;54.498;18.544;2024-03-17T08:52:33;4.40;;;1.90;;
71204;SDS011;58935;54.498;18.544;2024-03-17T08:55:00;5.80;;;1.60;;
71204;SDS011;58935;54.498;18.544;2024-03-17T08:57:28;1.40;;;1.30;;
71204;SDS011;58935;54.498;18.544;2024-03-17T08:59:53;3.20;;;1.90;;
71204;SDS011;58935;54.498;18.544;2024-03-17T09:02:21;2.70;;;1.60;;
71204;SDS011;58935;54.498;18.544;2024-03-17T09:04:47;2.00;;;1.50;;
71204;SDS011;58935;54.498;18.544;2024-03-17T09:07:13;3.10;;;2.00;;
71204;SDS011;58935;54.498;18.544;2024-03-17T09:09:42;2.20;;;2.00;;
71204;SDS011;58935;54.498;18.544;2024-03-17T09:12:08;3.70;;;1.70;;
71204;SDS011;58935;54.498;18.544;2024-03-17T09:14:36;2.00;;;1.60;;
71204;SDS011;58935;54.498;18.544;2024-03-17T09:17:02;1.90;;;1.50;;
71204;SDS011;58935;54.498;18.544;2024-03-17T09:19:30;1.80;;;1.30;;
71204;SDS011;58935;54.498;18.544;2024-03-17T09:21:55;2.40;;;1.30;;
71204;SDS011;58935;54.498;18.544;2024-03-17T09:24:24;1.90;;;1.60;;
71204;SDS011;58935;54.498;18.544;2024-03-17T09:26:49;2.60;;;1.60;;
71204;SDS011;58935;54.498;18.544;2024-03-17T09:29:15;2.20;;;1.60;;
71204;SDS011;58935;54.498;18.544;2024-03-17T09:31:41;1.80;;;1.50;;
71204;SDS011;58935;54.498;18.544;2024-03-17T09:34:08;1.40;;;1.30;;
71204;SDS011;58935;54.498;18.544;2024-03-17T09:36:34;1.70;;;1.40;;
71204;SDS011;58935;54.498;18.544;2024-03-17T09:39:00;2.80;;;1.80;;
71204;SDS011;58935;54.498;18.544;2024-03-17T09:41:29;1.70;;;1.60;;
71204;SDS011;58935;54.498;18.544;2024-03-17T09:43:57;2.40;;;1.70;;
71204;SDS011;58935;54.498;18.544;2024-03-17T09:46:24;5.00;;;1.40;;
71204;SDS011;58935;54.498;18.544;2024-03-17T09:48:53;3.50;;;1.90;;
71204;SDS011;58935;54.498;18.544;2024-03-17T09:51:23;3.30;;;1.90;;
71204;SDS011;58935;54.498;18.544;2024-03-17T09:53:50;2.50;;;1.60;;
71204;SDS011;58935;54.498;18.544;2024-03-17T09:56:18;2.00;;;1.60;;
71204;SDS011;58935;54.498;18.544;2024-03-17T09:58:47;3.20;;;1.80;;
71204;SDS011;58935;54.498;18.544;2024-03-17T10:01:14;4.70;;;2.00;;
71204;SDS011;58935;54.498;18.544;2024-03-17T10:06:12;4.70;;;2.40;;
71204;SDS011;58935;54.498;18.544;2024-03-17T10:08:55;2.90;;;1.30;;
71204;SDS011;58935;54.498;18.544;2024-03-17T10:11:24;2.10;;;1.10;;
71204;SDS011;58935;54.498;18.544;2024-03-17T10:14:06;1.20;;;1.10;;
71204;SDS011;58935;54.498;18.544;2024-03-17T10:16:35;1.50;;;1.30;;
71204;SDS011;58935;54.498;18.544;2024-03-17T10:21:36;1.40;;;1.20;;
71204;SDS011;58935;54.498;18.544;2024-03-17T10:31:43;1.60;;;1.30;;
71204;SDS011;58935;54.498;18.544;2024-03-17T10:34:14;2.30;;;1.10;;
71204;SDS011;58935;54.498;18.544;2024-03-17T10:36:44;3.70;;;1.00;;
71204;SDS011;58935;54.498;18.544;2024-03-17T10:41:57;1.30;;;1.20;;
71204;SDS011;58935;54.498;18.544;2024-03-17T10:44:28;2.50;;;1.00;;
71204;SDS011;58935;54.498;18.544;2024-03-17T10:47:00;2.60;;;1.40;;
71204;SDS011;58935;54.498;18.544;2024-03-17T10:49:29;1.80;;;1.70;;
71204;SDS011;58935;54.498;18.544;2024-03-17T10:52:16;2.00;;;1.70;;
71204;SDS011;58935;54.498;18.544;2024-03-17T10:54:47;3.00;;;1.40;;
71204;SDS011;58935;54.498;18.544;2024-03-17T10:59:55;1.90;;;1.10;;
71204;SDS011;58935;54.498;18.544;2024-03-17T11:02:24;1.60;;;1.40;;
71204;SDS011;58935;54.498;18.544;2024-03-17T11:04:52;3.00;;;1.60;;
71204;SDS011;58935;54.498;18.544;2024-03-17T11:07:20;1.70;;;1.20;;
71204;SDS011;58935;54.498;18.544;2024-03-17T11:09:48;3.00;;;1.50;;
71204;SDS011;58935;54.498;18.544;2024-03-17T11:17:42;2.50;;;1.30;;
71204;SDS011;58935;54.498;18.544;2024-03-17T11:20:14;2.20;;;1.40;;
71204;SDS011;58935;54.498;18.544;2024-03-17T11:22:42;1.60;;;1.50;;
71204;SDS011;58935;54.498;18.544;2024-03-17T11:27:45;1.30;;;1.20;;
71204;SDS011;58935;54.498;18.544;2024-03-17T11:30:41;1.70;;;1.60;;
71204;SDS011;58935;54.498;18.544;2024-03-17T11:33:01;2.80;;;1.60;;
71204;SDS011;58935;54.498;18.544;2024-03-17T11:35:29;2.10;;;1.40;;
71204;SDS011;58935;54.498;18.544;2024-03-17T11:37:54;3.00;;;1.50;;
71204;SDS011;58935;54.498;18.544;2024-03-17T11:40:24;2.20;;;1.30;;
71204;SDS011;58935;54.498;18.544;2024-03-17T11:45:26;3.40;;;2.00;;
71204;SDS011;58935;54.498;18.544;2024-03-17T11:47:52;2.70;;;2.00;;
71204;SDS011;58935;54.498;18.544;2024-03-17T11:50:18;2.10;;;1.90;;
71204;SDS011;58935;54.498;18.544;2024-03-17T11:52:44;3.50;;;2.00;;
71204;SDS011;58935;54.498;18.544;2024-03-17T11:55:15;2.40;;;1.60;;
71204;SDS011;58935;54.498;18.544;2024-03-17T11:57:42;2.70;;;1.60;;
71204;SDS011;58935;54.498;18.544;2024-03-17T12:00:25;2.40;;;1.50;;
71204;SDS011;58935;54.498;18.544;2024-03-17T12:02:51;1.60;;;1.50;;
71204;SDS011;58935;54.498;18.544;2024-03-17T12:05:19;4.10;;;1.90;;
71204;SDS011;58935;54.498;18.544;2024-03-17T12:07:46;2.30;;;1.40;;
71204;SDS011;58935;54.498;18.544;2024-03-17T12:10:11;2.70;;;1.30;;
71204;SDS011;58935;54.498;18.544;2024-03-17T12:12:39;1.40;;;1.30;;
71204;SDS011;58935;54.498;18.544;2024-03-17T12:15:16;2.60;;;1.50;;
71204;SDS011;58935;54.498;18.544;2024-03-17T12:17:46;2.40;;;1.10;;
71204;SDS011;58935;54.498;18.544;2024-03-17T12:20:18;2.00;;;1.40;;
71204;SDS011;58935;54.498;18.544;2024-03-17T12:22:47;3.10;;;1.60;;
71204;SDS011;58935;54.498;18.544;2024-03-17T12:25:17;3.60;;;1.90;;
71204;SDS011;58935;54.498;18.544;2024-03-17T12:27:48;1.60;;;1.50;;
71204;SDS011;58935;54.498;18.544;2024-03-17T12:30:15;3.60;;;1.80;;
71204;SDS011;58935;54.498;18.544;2024-03-17T12:32:42;3.70;;;1.90;;
71204;SDS011;58935;54.498;18.544;2024-03-17T12:35:13;2.30;;;2.00;;
71204;SDS011;58935;54.498;18.544;2024-03-17T12:37:43;2.60;;;1.70;;
71204;SDS011;58935;54.498;18.544;2024-03-17T12:40:18;3.70;;;1.40;;
71204;SDS011;58935;54.498;18.544;2024-03-17T12:42:48;2.50;;;1.50;;
71204;SDS011;58935;54.498;18.544;2024-03-17T12:45:19;1.60;;;1.50;;
71204;SDS011;58935;54.498;18.544;2024-03-17T12:47:48;1.60;;;1.30;;
71204;SDS011;58935;54.498;18.544;2024-03-17T12:50:15;1.50;;;1.40;;
71204;SDS011;58935;54.498;18.544;2024-03-17T12:52:51;1.70;;;1.30;;
71204;SDS011;58935;54.498;18.544;2024-03-17T12:55:19;4.70;;;1.70;;
71204;SDS011;58935;54.498;18.544;2024-03-17T12:57:49;2.50;;;1.80;;
71204;SDS011;58935;54.498;18.544;2024-03-17T13:00:22;3.30;;;2.10;;
71204;SDS011;58935;54.498;18.544;2024-03-17T13:02:51;2.50;;;1.50;;
71204;SDS011;58935;54.498;18.544;2024-03-17T13:05:19;1.50;;;1.40;;
71204;SDS011;58935;54.498;18.544;2024-03-17T13:07:47;3.60;;;2.00;;
71204;SDS011;58935;54.498;18.544;2024-03-17T13:10:14;3.10;;;2.20;;
71204;SDS011;58935;54.498;18.544;2024-03-17T13:12:42;3.10;;;1.80;;
71204;SDS011;58935;54.498;18.544;2024-03-17T13:15:13;3.10;;;1.60;;
71204;SDS011;58935;54.498;18.544;2024-03-17T13:17:42;2.30;;;1.60;;
71204;SDS011;58935;54.498;18.544;2024-03-17T13:20:15;1.70;;;1.60;;
71204;SDS011;58935;54.498;18.544;2024-03-17T13:22:42;4.80;;;2.10;;
71204;SDS011;58935;54.498;18.544;2024-03-17T13:25:14;3.80;;;1.80;;
71204;SDS011;58935;54.498;18.544;2024-03-17T13:27:44;4.00;;;2.00;;
71204;SDS011;58935;54.498;18.544;2024-03-17T13:30:15;2.90;;;1.80;;
71204;SDS011;58935;54.498;18.544;2024-03-17T13:32:43;5.40;;;1.70;;
71204;SDS011;58935;54.498;18.544;2024-03-17T13:35:15;3.40;;;2.20;;
71204;SDS011;58935;54.498;18.544;2024-03-17T13:37:44;3.70;;;1.80;;
71204;SDS011;58935;54.498;18.544;2024-03-17T13:40:11;2.40;;;1.70;;
71204;SDS011;58935;54.498;18.544;2024-03-17T13:42:39;5.70;;;2.00;;
71204;SDS011;58935;54.498;18.544;2024-03-17T13:45:05;5.80;;;2.50;;
71204;SDS011;58935;54.498;18.544;2024-03-17T13:47:36;6.60;;;2.30;;
71204;SDS011;58935;54.498;18.544;2024-03-17T13:50:02;2.90;;;1.60;;
71204;SDS011;58935;54.498;18.544;2024-03-17T13:52:32;2.80;;;1.70;;
71204;SDS011;58935;54.498;18.544;2024-03-17T13:54:58;8.20;;;2.80;;
71204;SDS011;58935;54.498;18.544;2024-03-17T13:57:26;4.10;;;2.10;;
71204;SDS011;58935;54.498;18.544;2024-03-17T13:59:52;9.00;;;2.60;;
71204;SDS011;58935;54.498;18.544;2024-03-17T14:02:22;5.30;;;1.90;;
71204;SDS011;58935;54.498;18.544;2024-03-17T14:04:48;7.20;;;1.90;;
71204;SDS011;58935;54.498;18.544;2024-03-17T14:07:13;2.60;;;1.70;;
71204;SDS011;58935;54.498;18.544;2024-03-17T14:09:41;10.30;;;2.30;;
71204;SDS011;58935;54.498;18.544;2024-03-17T14:12:08;1.90;;;1.50;;
71204;SDS011;58935;54.498;18.544;2024-03-17T14:14:34;2.20;;;1.90;;
71204;SDS011;58935;54.498;18.544;2024-03-17T14:16:59;3.60;;;2.00;;
71204;SDS011;58935;54.498;18.544;2024-03-17T14:19:27;4.20;;;1.70;;
71204;SDS011;58935;54.498;18.544;2024-03-17T14:21:55;2.30;;;1.50;;
71204;SDS011;58935;54.498;18.544;2024-03-17T14:24:20;8.70;;;1.80;;
71204;SDS011;58935;54.498;18.544;2024-03-17T14:26:48;3.70;;;2.00;;
71204;SDS011;58935;54.498;18.544;2024-03-17T14:29:13;4.40;;;2.30;;
71204;SDS011;58935;54.498;18.544;2024-03-17T14:31:39;2.40;;;2.00;;
71204;SDS011;58935;54.498;18.544;2024-03-17T14:34:09;4.40;;;2.10;;
71204;SDS011;58935;54.498;18.544;2024-03-17T14:36:36;4.00;;;1.80;;
71204;SDS011;58935;54.498;18.544;2024-03-17T14:39:02;7.90;;;3.70;;
71204;SDS011;58935;54.498;18.544;2024-03-17T14:41:29;2.10;;;1.70;;
71204;SDS011;58935;54.498;18.544;2024-03-17T14:43:56;4.30;;;1.70;;
71204;SDS011;58935;54.498;18.544;2024-03-17T14:46:24;2.80;;;1.60;;
71204;SDS011;58935;54.498;18.544;2024-03-17T14:48:49;2.50;;;1.90;;
71204;SDS011;58935;54.498;18.544;2024-03-17T14:51:17;9.40;;;2.40;;
71204;SDS011;58935;54.498;18.544;2024-03-17T14:53:43;4.40;;;2.10;;
71204;SDS011;58935;54.498;18.544;2024-03-17T14:56:15;3.50;;;2.20;;
71204;SDS011;58935;54.498;18.544;2024-03-17T14:58:44;2.30;;;1.70;;
71204;SDS011;58935;54.498;18.544;2024-03-17T15:01:13;5.60;;;1.90;;
71204;SDS011;58935;54.498;18.544;2024-03-17T15:03:39;4.80;;;2.30;;
71204;SDS011;58935;54.498;18.544;2024-03-17T15:06:12;4.70;;;1.80;;
71204;SDS011;58935;54.498;18.544;2024-03-17T15:08:40;2.30;;;1.60;;